sensor_id;sensor_type;location;lat;lon;timestamp;temperature;humidity
9776;DHT22;4927;52.472;13.108;2023-07-13T00:00:55;16.20;99.90
9776;DHT22;4927;52.472;13.108;2023-07-13T00:01:57;16.20;99.90
9776;DHT22;4927;52.472;13.108;2023-07-13T00:02:59;16.20;99.90
9776;DHT22;4927;52.472;13.108;2023-07-13T00:04:01;16.20;99.90
9776;DHT22;4927;52.472;13.108;2023-07-13T00:05:02;16.10;99.90
9776;DHT22;4927;52.472;13.108;2023-07-13T00:06:04;16.10;99.90
9776;DHT22;4927;52.472;13.108;2023-07-13T00:07:07;16.20;99.90
9776;DHT22;4927;52.472;13.108;2023-07-13T00:08:08;16.10;99.90
9776;DHT22;4927;52.472;13.108;2023-07-13T00:09:11;16.10;99.90
9776;DHT22;4927;52.472;13.108;2023-07-13T00:10:12;16.10;99.90
9776;DHT22;4927;52.472;13.108;2023-07-13T00:11:13;16.10;99.90
9776;DHT22;4927;52.472;13.108;2023-07-13T00:12:24;16.10;99.90
9776;DHT22;4927;52.472;13.108;2023-07-13T00:13:25;16.10;99.90
9776;DHT22;4927;52.472;13.108;2023-07-13T00:14:27;16.10;99.90
9776;DHT22;4927;52.472;13.108;2023-07-13T00:15:29;16.10;99.90
9776;DHT22;4927;52.472;13.108;2023-07-13T00:16:32;16.10;99.90
9776;DHT22;4927;52.472;13.108;2023-07-13T00:17:33;16.00;99.90
9776;DHT22;4927;52.472;13.108;2023-07-13T00:18:35;16.00;99.90
9776;DHT22;4927;52.472;13.108;2023-07-13T00:19:36;16.00;99.90
9776;DHT22;4927;52.472;13.108;2023-07-13T00:20:38;16.00;99.90
9776;DHT22;4927;52.472;13.108;2023-07-13T00:21:40;16.00;99.90
9776;DHT22;4927;52.472;13.108;2023-07-13T00:22:42;16.00;99.90
9776;DHT22;4927;52.472;13.108;2023-07-13T00:23:43;16.00;99.90
9776;DHT22;4927;52.472;13.108;2023-07-13T00:24:45;16.00;99.90
9776;DHT22;4927;52.472;13.108;2023-07-13T00:25:47;16.00;99.90
9776;DHT22;4927;52.472;13.108;2023-07-13T00:26:49;16.00;99.90
9776;DHT22;4927;52.472;13.108;2023-07-13T00:27:50;16.00;99.90
9776;DHT22;4927;52.472;13.108;2023-07-13T00:28:52;16.00;99.90
9776;DHT22;4927;52.472;13.108;2023-07-13T00:29:54;16.00;99.90
9776;DHT22;4927;52.472;13.108;2023-07-13T00:30:57;16.00;99.90
9776;DHT22;4927;52.472;13.108;2023-07-13T00:31:58;16.00;99.90
9776;DHT22;4927;52.472;13.108;2023-07-13T00:33:00;15.90;99.90
9776;DHT22;4927;52.472;13.108;2023-07-13T00:34:02;16.00;99.90
9776;DHT22;4927;52.472;13.108;2023-07-13T00:35:04;15.90;99.90
9776;DHT22;4927;52.472;13.108;2023-07-13T00:36:07;16.00;99.90
9776;DHT22;4927;52.472;13.108;2023-07-13T00:37:09;15.90;99.90
9776;DHT22;4927;52.472;13.108;2023-07-13T00:38:11;15.90;99.90
9776;DHT22;4927;52.472;13.108;2023-07-13T00:39:13;15.90;99.90
9776;DHT22;4927;52.472;13.108;2023-07-13T00:40:15;15.90;99.90
9776;DHT22;4927;52.472;13.108;2023-07-13T00:41:16;15.90;99.90
9776;DHT22;4927;52.472;13.108;2023-07-13T00:42:18;15.90;99.90
9776;DHT22;4927;52.472;13.108;2023-07-13T00:43:21;15.90;99.90
9776;DHT22;4927;52.472;13.108;2023-07-13T00:44:22;15.90;99.90
9776;DHT22;4927;52.472;13.108;2023-07-13T00:47:14;15.80;99.90
9776;DHT22;4927;52.472;13.108;2023-07-13T00:48:18;15.80;99.90
9776;DHT22;4927;52.472;13.108;2023-07-13T00:49:19;15.80;99.90
9776;DHT22;4927;52.472;13.108;2023-07-13T00:50:20;15.80;99.90
9776;DHT22;4927;52.472;13.108;2023-07-13T00:51:25;15.80;99.90
9776;DHT22;4927;52.472;13.108;2023-07-13T00:52:23;15.80;99.90
9776;DHT22;4927;52.472;13.108;2023-07-13T00:53:26;15.80;99.90
9776;DHT22;4927;52.472;13.108;2023-07-13T00:54:29;15.80;99.90
9776;DHT22;4927;52.472;13.108;2023-07-13T00:55:29;15.70;99.90
9776;DHT22;4927;52.472;13.108;2023-07-13T00:56:32;15.70;99.90
9776;DHT22;4927;52.472;13.108;2023-07-13T00:57:33;15.70;99.90
9776;DHT22;4927;52.472;13.108;2023-07-13T00:58:35;15.70;99.90
9776;DHT22;4927;52.472;13.108;2023-07-13T00:59:37;15.70;99.90
9776;DHT22;4927;52.472;13.108;2023-07-13T01:00:38;15.70;99.90
9776;DHT22;4927;52.472;13.108;2023-07-13T01:01:40;15.70;99.90
9776;DHT22;4927;52.472;13.108;2023-07-13T01:02:42;15.60;99.90
9776;DHT22;4927;52.472;13.108;2023-07-13T01:03:44;15.60;99.90
9776;DHT22;4927;52.472;13.108;2023-07-13T01:04:47;15.60;99.90
9776;DHT22;4927;52.472;13.108;2023-07-13T01:05:48;15.60;99.90
9776;DHT22;4927;52.472;13.108;2023-07-13T01:06:50;15.60;99.90
9776;DHT22;4927;52.472;13.108;2023-07-13T01:07:52;15.60;99.90
9776;DHT22;4927;52.472;13.108;2023-07-13T01:08:55;15.60;99.90
9776;DHT22;4927;52.472;13.108;2023-07-13T01:09:56;15.60;99.90
9776;DHT22;4927;52.472;13.108;2023-07-13T01:10:58;15.50;99.90
9776;DHT22;4927;52.472;13.108;2023-07-13T01:12:00;15.50;99.90
9776;DHT22;4927;52.472;13.108;2023-07-13T01:13:01;15.50;99.90
9776;DHT22;4927;52.472;13.108;2023-07-13T01:14:03;15.50;99.90
9776;DHT22;4927;52.472;13.108;2023-07-13T01:15:05;15.50;99.90
9776;DHT22;4927;52.472;13.108;2023-07-13T01:16:15;15.50;99.90
9776;DHT22;4927;52.472;13.108;2023-07-13T01:17:13;15.50;99.90
9776;DHT22;4927;52.472;13.108;2023-07-13T01:18:16;15.50;99.90
9776;DHT22;4927;52.472;13.108;2023-07-13T01:19:28;15.50;99.90
9776;DHT22;4927;52.472;13.108;2023-07-13T01:20:28;15.50;99.90
9776;DHT22;4927;52.472;13.108;2023-07-13T01:21:32;15.50;99.90
9776;DHT22;4927;52.472;13.108;2023-07-13T01:22:32;15.50;99.90
9776;DHT22;4927;52.472;13.108;2023-07-13T01:23:33;15.40;99.90
9776;DHT22;4927;52.472;13.108;2023-07-13T01:24:36;15.40;99.90
9776;DHT22;4927;52.472;13.108;2023-07-13T01:25:37;15.40;99.90
9776;DHT22;4927;52.472;13.108;2023-07-13T01:26:39;15.40;99.90
9776;DHT22;4927;52.472;13.108;2023-07-13T01:27:40;15.40;99.90
9776;DHT22;4927;52.472;13.108;2023-07-13T01:28:42;15.40;99.90
9776;DHT22;4927;52.472;13.108;2023-07-13T01:29:44;15.40;99.90
9776;DHT22;4927;52.472;13.108;2023-07-13T01:30:46;15.30;99.90
9776;DHT22;4927;52.472;13.108;2023-07-13T01:31:47;15.30;99.90
9776;DHT22;4927;52.472;13.108;2023-07-13T01:32:49;15.30;99.90
9776;DHT22;4927;52.472;13.108;2023-07-13T01:33:51;15.30;99.90
9776;DHT22;4927;52.472;13.108;2023-07-13T01:34:53;15.30;99.90
9776;DHT22;4927;52.472;13.108;2023-07-13T01:35:55;15.30;99.90
9776;DHT22;4927;52.472;13.108;2023-07-13T01:36:57;15.20;99.90
9776;DHT22;4927;52.472;13.108;2023-07-13T01:38:00;15.20;99.90
9776;DHT22;4927;52.472;13.108;2023-07-13T01:39:02;15.20;99.90
9776;DHT22;4927;52.472;13.108;2023-07-13T01:40:04;15.20;99.90
9776;DHT22;4927;52.472;13.108;2023-07-13T01:41:07;15.20;99.90
9776;DHT22;4927;52.472;13.108;2023-07-13T01:42:09;15.20;99.90
9776;DHT22;4927;52.472;13.108;2023-07-13T01:43:11;15.20;99.90
9776;DHT22;4927;52.472;13.108;2023-07-13T01:44:13;15.10;99.90
9776;DHT22;4927;52.472;13.108;2023-07-13T01:45:15;15.10;99.90
9776;DHT22;4927;52.472;13.108;2023-07-13T01:46:17;15.20;99.90
9776;DHT22;4927;52.472;13.108;2023-07-13T01:47:19;15.20;99.90
9776;DHT22;4927;52.472;13.108;2023-07-13T01:48:21;15.20;99.90
9776;DHT22;4927;52.472;13.108;2023-07-13T01:49:22;15.20;99.90
9776;DHT22;4927;52.472;13.108;2023-07-13T01:50:24;15.20;99.90
9776;DHT22;4927;52.472;13.108;2023-07-13T01:51:26;15.20;99.90
9776;DHT22;4927;52.472;13.108;2023-07-13T01:52:28;15.20;99.90
9776;DHT22;4927;52.472;13.108;2023-07-13T01:53:29;15.20;99.90
9776;DHT22;4927;52.472;13.108;2023-07-13T01:54:31;15.20;99.90
9776;DHT22;4927;52.472;13.108;2023-07-13T01:55:34;15.20;99.90
9776;DHT22;4927;52.472;13.108;2023-07-13T01:56:35;15.20;99.90
9776;DHT22;4927;52.472;13.108;2023-07-13T01:57:37;15.20;99.90
9776;DHT22;4927;52.472;13.108;2023-07-13T01:58:38;15.20;99.90
9776;DHT22;4927;52.472;13.108;2023-07-13T01:59:40;15.10;99.90
9776;DHT22;4927;52.472;13.108;2023-07-13T02:00:43;15.10;99.90
9776;DHT22;4927;52.472;13.108;2023-07-13T02:01:44;15.10;99.90
9776;DHT22;4927;52.472;13.108;2023-07-13T02:02:46;15.10;99.90
9776;DHT22;4927;52.472;13.108;2023-07-13T02:03:48;15.10;99.90
9776;DHT22;4927;52.472;13.108;2023-07-13T02:04:51;15.10;99.90
9776;DHT22;4927;52.472;13.108;2023-07-13T02:05:53;15.10;99.90
9776;DHT22;4927;52.472;13.108;2023-07-13T02:06:55;15.10;99.90
9776;DHT22;4927;52.472;13.108;2023-07-13T02:07:56;15.10;99.90
9776;DHT22;4927;52.472;13.108;2023-07-13T02:08:59;15.10;99.90
9776;DHT22;4927;52.472;13.108;2023-07-13T02:10:01;15.10;99.90
9776;DHT22;4927;52.472;13.108;2023-07-13T02:11:03;15.10;99.90
9776;DHT22;4927;52.472;13.108;2023-07-13T02:12:05;15.10;99.90
9776;DHT22;4927;52.472;13.108;2023-07-13T02:13:07;15.00;99.90
9776;DHT22;4927;52.472;13.108;2023-07-13T02:14:09;15.00;99.90
9776;DHT22;4927;52.472;13.108;2023-07-13T02:15:11;15.00;99.90
9776;DHT22;4927;52.472;13.108;2023-07-13T02:16:12;15.00;99.90
9776;DHT22;4927;52.472;13.108;2023-07-13T02:17:15;15.00;99.90
9776;DHT22;4927;52.472;13.108;2023-07-13T02:18:17;15.00;99.90
9776;DHT22;4927;52.472;13.108;2023-07-13T02:19:18;15.00;99.90
9776;DHT22;4927;52.472;13.108;2023-07-13T02:20:20;15.00;99.90
9776;DHT22;4927;52.472;13.108;2023-07-13T02:21:22;15.00;99.90
9776;DHT22;4927;52.472;13.108;2023-07-13T02:22:24;14.90;99.90
9776;DHT22;4927;52.472;13.108;2023-07-13T02:23:26;14.90;99.90
9776;DHT22;4927;52.472;13.108;2023-07-13T02:24:28;14.90;99.90
9776;DHT22;4927;52.472;13.108;2023-07-13T02:25:29;14.90;99.90
9776;DHT22;4927;52.472;13.108;2023-07-13T02:26:31;14.90;99.90
9776;DHT22;4927;52.472;13.108;2023-07-13T02:27:33;14.80;99.90
9776;DHT22;4927;52.472;13.108;2023-07-13T02:28:34;14.80;99.90
9776;DHT22;4927;52.472;13.108;2023-07-13T02:29:36;14.80;99.90
9776;DHT22;4927;52.472;13.108;2023-07-13T02:30:38;14.80;99.90
9776;DHT22;4927;52.472;13.108;2023-07-13T02:31:40;14.70;99.90
9776;DHT22;4927;52.472;13.108;2023-07-13T02:32:41;14.70;99.90
9776;DHT22;4927;52.472;13.108;2023-07-13T02:33:43;14.70;99.90
9776;DHT22;4927;52.472;13.108;2023-07-13T02:34:45;14.60;99.90
9776;DHT22;4927;52.472;13.108;2023-07-13T02:35:47;14.60;99.90
9776;DHT22;4927;52.472;13.108;2023-07-13T02:36:49;14.60;99.90
9776;DHT22;4927;52.472;13.108;2023-07-13T02:37:50;14.60;99.90
9776;DHT22;4927;52.472;13.108;2023-07-13T02:38:52;14.60;99.90
9776;DHT22;4927;52.472;13.108;2023-07-13T02:39:54;14.60;99.90
9776;DHT22;4927;52.472;13.108;2023-07-13T02:40:55;14.60;99.90
9776;DHT22;4927;52.472;13.108;2023-07-13T02:41:57;14.50;99.90
9776;DHT22;4927;52.472;13.108;2023-07-13T02:42:59;14.50;99.90
9776;DHT22;4927;52.472;13.108;2023-07-13T02:44:01;14.50;99.90
9776;DHT22;4927;52.472;13.108;2023-07-13T02:45:04;14.50;99.90
9776;DHT22;4927;52.472;13.108;2023-07-13T02:46:07;14.50;99.90
9776;DHT22;4927;52.472;13.108;2023-07-13T02:47:08;14.50;99.90
9776;DHT22;4927;52.472;13.108;2023-07-13T02:48:11;14.50;99.90
9776;DHT22;4927;52.472;13.108;2023-07-13T02:49:12;14.50;99.90
9776;DHT22;4927;52.472;13.108;2023-07-13T02:50:14;14.50;99.90
9776;DHT22;4927;52.472;13.108;2023-07-13T02:51:16;14.50;99.90
9776;DHT22;4927;52.472;13.108;2023-07-13T02:52:18;14.60;99.90
9776;DHT22;4927;52.472;13.108;2023-07-13T02:53:19;14.50;99.90
9776;DHT22;4927;52.472;13.108;2023-07-13T02:54:21;14.60;99.90
9776;DHT22;4927;52.472;13.108;2023-07-13T02:55:23;14.60;99.90
9776;DHT22;4927;52.472;13.108;2023-07-13T02:56:25;14.60;99.90
9776;DHT22;4927;52.472;13.108;2023-07-13T02:57:27;14.60;99.90
9776;DHT22;4927;52.472;13.108;2023-07-13T02:58:28;14.60;99.90
9776;DHT22;4927;52.472;13.108;2023-07-13T02:59:30;14.60;99.90
9776;DHT22;4927;52.472;13.108;2023-07-13T03:00:32;14.60;99.90
9776;DHT22;4927;52.472;13.108;2023-07-13T03:01:34;14.60;99.90
9776;DHT22;4927;52.472;13.108;2023-07-13T03:02:35;14.60;99.90
9776;DHT22;4927;52.472;13.108;2023-07-13T03:03:38;14.60;99.90
9776;DHT22;4927;52.472;13.108;2023-07-13T03:04:39;14.60;99.90
9776;DHT22;4927;52.472;13.108;2023-07-13T03:05:43;14.60;99.90
9776;DHT22;4927;52.472;13.108;2023-07-13T03:06:44;14.60;99.90
9776;DHT22;4927;52.472;13.108;2023-07-13T03:07:45;14.60;99.90
9776;DHT22;4927;52.472;13.108;2023-07-13T03:08:47;14.60;99.90
9776;DHT22;4927;52.472;13.108;2023-07-13T03:09:53;14.60;99.90
9776;DHT22;4927;52.472;13.108;2023-07-13T03:11:00;14.60;99.90
9776;DHT22;4927;52.472;13.108;2023-07-13T03:12:03;14.60;99.90
9776;DHT22;4927;52.472;13.108;2023-07-13T03:13:05;14.60;99.90
9776;DHT22;4927;52.472;13.108;2023-07-13T03:14:07;14.60;99.90
9776;DHT22;4927;52.472;13.108;2023-07-13T03:15:09;14.50;99.90
9776;DHT22;4927;52.472;13.108;2023-07-13T03:16:11;14.50;99.90
9776;DHT22;4927;52.472;13.108;2023-07-13T03:17:12;14.50;99.90
9776;DHT22;4927;52.472;13.108;2023-07-13T03:18:14;14.50;99.90
9776;DHT22;4927;52.472;13.108;2023-07-13T03:19:16;14.50;99.90
9776;DHT22;4927;52.472;13.108;2023-07-13T03:20:19;14.50;99.90
9776;DHT22;4927;52.472;13.108;2023-07-13T03:21:21;14.50;99.90
9776;DHT22;4927;52.472;13.108;2023-07-13T03:22:23;14.50;99.90
9776;DHT22;4927;52.472;13.108;2023-07-13T03:23:24;14.50;99.90
9776;DHT22;4927;52.472;13.108;2023-07-13T03:24:26;14.50;99.90
9776;DHT22;4927;52.472;13.108;2023-07-13T03:25:28;14.50;99.90
9776;DHT22;4927;52.472;13.108;2023-07-13T03:26:29;14.50;99.90
9776;DHT22;4927;52.472;13.108;2023-07-13T03:27:32;14.60;99.90
9776;DHT22;4927;52.472;13.108;2023-07-13T03:28:33;14.60;99.90
9776;DHT22;4927;52.472;13.108;2023-07-13T03:29:36;14.60;99.90
9776;DHT22;4927;52.472;13.108;2023-07-13T03:30:38;14.60;99.90
9776;DHT22;4927;52.472;13.108;2023-07-13T03:31:39;14.60;99.90
9776;DHT22;4927;52.472;13.108;2023-07-13T03:32:41;14.60;99.90
9776;DHT22;4927;52.472;13.108;2023-07-13T03:33:43;14.60;99.90
9776;DHT22;4927;52.472;13.108;2023-07-13T03:34:45;14.60;99.90
9776;DHT22;4927;52.472;13.108;2023-07-13T03:35:46;14.60;99.90
9776;DHT22;4927;52.472;13.108;2023-07-13T03:36:49;14.60;99.90
9776;DHT22;4927;52.472;13.108;2023-07-13T03:37:50;14.60;99.90
9776;DHT22;4927;52.472;13.108;2023-07-13T03:38:53;14.60;99.90
9776;DHT22;4927;52.472;13.108;2023-07-13T03:39:54;14.70;99.90
9776;DHT22;4927;52.472;13.108;2023-07-13T03:40:56;14.70;99.90
9776;DHT22;4927;52.472;13.108;2023-07-13T03:41:58;14.70;99.90
9776;DHT22;4927;52.472;13.108;2023-07-13T03:42:59;14.70;99.90
9776;DHT22;4927;52.472;13.108;2023-07-13T03:44:02;14.70;99.90
9776;DHT22;4927;52.472;13.108;2023-07-13T03:45:05;14.70;99.90
9776;DHT22;4927;52.472;13.108;2023-07-13T03:46:07;14.70;99.90
9776;DHT22;4927;52.472;13.108;2023-07-13T03:47:10;14.80;99.90
9776;DHT22;4927;52.472;13.108;2023-07-13T03:48:11;14.70;99.90
9776;DHT22;4927;52.472;13.108;2023-07-13T03:49:13;14.80;99.90
9776;DHT22;4927;52.472;13.108;2023-07-13T03:50:15;14.80;99.90
9776;DHT22;4927;52.472;13.108;2023-07-13T03:51:17;14.80;99.90
9776;DHT22;4927;52.472;13.108;2023-07-13T03:52:18;14.90;99.90
9776;DHT22;4927;52.472;13.108;2023-07-13T03:53:20;14.90;99.90
9776;DHT22;4927;52.472;13.108;2023-07-13T03:54:22;14.90;99.90
9776;DHT22;4927;52.472;13.108;2023-07-13T03:55:24;14.90;99.90
9776;DHT22;4927;52.472;13.108;2023-07-13T03:56:26;14.90;99.90
9776;DHT22;4927;52.472;13.108;2023-07-13T03:57:28;15.00;99.90
9776;DHT22;4927;52.472;13.108;2023-07-13T03:58:32;15.00;99.90
9776;DHT22;4927;52.472;13.108;2023-07-13T03:59:34;15.00;99.90
9776;DHT22;4927;52.472;13.108;2023-07-13T04:00:36;15.00;99.90
9776;DHT22;4927;52.472;13.108;2023-07-13T04:01:37;15.00;99.90
9776;DHT22;4927;52.472;13.108;2023-07-13T04:02:39;15.00;99.90
9776;DHT22;4927;52.472;13.108;2023-07-13T04:03:41;15.00;99.90
9776;DHT22;4927;52.472;13.108;2023-07-13T04:04:43;15.10;99.90
9776;DHT22;4927;52.472;13.108;2023-07-13T04:05:44;15.10;99.90
9776;DHT22;4927;52.472;13.108;2023-07-13T04:06:46;15.10;99.90
9776;DHT22;4927;52.472;13.108;2023-07-13T04:07:48;15.10;99.90
9776;DHT22;4927;52.472;13.108;2023-07-13T04:08:50;15.10;99.90
9776;DHT22;4927;52.472;13.108;2023-07-13T04:09:51;15.10;99.90
9776;DHT22;4927;52.472;13.108;2023-07-13T04:10:53;15.20;99.90
9776;DHT22;4927;52.472;13.108;2023-07-13T04:11:55;15.20;99.90
9776;DHT22;4927;52.472;13.108;2023-07-13T04:12:57;15.20;99.90
9776;DHT22;4927;52.472;13.108;2023-07-13T04:13:59;15.20;99.90
9776;DHT22;4927;52.472;13.108;2023-07-13T04:15:00;15.20;99.90
9776;DHT22;4927;52.472;13.108;2023-07-13T04:16:03;15.20;99.90
9776;DHT22;4927;52.472;13.108;2023-07-13T04:17:06;15.30;99.90
9776;DHT22;4927;52.472;13.108;2023-07-13T04:18:07;15.20;99.90
9776;DHT22;4927;52.472;13.108;2023-07-13T04:19:10;15.30;99.90
9776;DHT22;4927;52.472;13.108;2023-07-13T04:20:12;15.30;99.90
9776;DHT22;4927;52.472;13.108;2023-07-13T04:21:14;15.30;99.90
9776;DHT22;4927;52.472;13.108;2023-07-13T04:22:15;15.30;99.90
9776;DHT22;4927;52.472;13.108;2023-07-13T04:23:17;15.30;99.90
9776;DHT22;4927;52.472;13.108;2023-07-13T04:24:19;15.30;99.90
9776;DHT22;4927;52.472;13.108;2023-07-13T04:25:20;15.40;99.90
9776;DHT22;4927;52.472;13.108;2023-07-13T04:26:23;15.40;99.90
9776;DHT22;4927;52.472;13.108;2023-07-13T04:27:25;15.40;99.90
9776;DHT22;4927;52.472;13.108;2023-07-13T04:28:27;15.40;99.90
9776;DHT22;4927;52.472;13.108;2023-07-13T04:29:29;15.40;99.90
9776;DHT22;4927;52.472;13.108;2023-07-13T04:30:31;15.50;99.90
9776;DHT22;4927;52.472;13.108;2023-07-13T04:31:33;15.50;99.90
9776;DHT22;4927;52.472;13.108;2023-07-13T04:32:35;15.50;99.90
9776;DHT22;4927;52.472;13.108;2023-07-13T04:33:38;15.60;99.90
9776;DHT22;4927;52.472;13.108;2023-07-13T04:34:39;15.50;99.90
9776;DHT22;4927;52.472;13.108;2023-07-13T04:35:42;15.50;99.90
9776;DHT22;4927;52.472;13.108;2023-07-13T04:36:43;15.60;99.90
9776;DHT22;4927;52.472;13.108;2023-07-13T04:37:45;15.60;99.90
9776;DHT22;4927;52.472;13.108;2023-07-13T04:38:47;15.60;99.90
9776;DHT22;4927;52.472;13.108;2023-07-13T04:39:49;15.70;99.90
9776;DHT22;4927;52.472;13.108;2023-07-13T04:40:51;15.70;99.90
9776;DHT22;4927;52.472;13.108;2023-07-13T04:41:53;15.70;99.90
9776;DHT22;4927;52.472;13.108;2023-07-13T04:42:55;15.70;99.90
9776;DHT22;4927;52.472;13.108;2023-07-13T04:43:56;15.70;99.90
9776;DHT22;4927;52.472;13.108;2023-07-13T04:44:58;15.80;99.90
9776;DHT22;4927;52.472;13.108;2023-07-13T04:46:04;15.80;99.90
9776;DHT22;4927;52.472;13.108;2023-07-13T04:47:06;15.80;99.90
9776;DHT22;4927;52.472;13.108;2023-07-13T04:48:09;15.90;99.90
9776;DHT22;4927;52.472;13.108;2023-07-13T04:49:11;15.90;99.90
9776;DHT22;4927;52.472;13.108;2023-07-13T04:50:13;15.90;99.90
9776;DHT22;4927;52.472;13.108;2023-07-13T04:51:17;15.90;99.90
9776;DHT22;4927;52.472;13.108;2023-07-13T04:52:19;15.90;99.90
9776;DHT22;4927;52.472;13.108;2023-07-13T04:53:21;16.00;99.90
9776;DHT22;4927;52.472;13.108;2023-07-13T04:54:23;16.00;99.90
9776;DHT22;4927;52.472;13.108;2023-07-13T04:55:24;16.00;99.90
9776;DHT22;4927;52.472;13.108;2023-07-13T04:56:26;16.00;99.90
9776;DHT22;4927;52.472;13.108;2023-07-13T04:57:28;16.10;99.90
9776;DHT22;4927;52.472;13.108;2023-07-13T04:58:29;16.10;99.90
9776;DHT22;4927;52.472;13.108;2023-07-13T04:59:32;16.10;99.90
9776;DHT22;4927;52.472;13.108;2023-07-13T05:00:34;16.10;99.90
9776;DHT22;4927;52.472;13.108;2023-07-13T05:01:36;16.10;99.90
9776;DHT22;4927;52.472;13.108;2023-07-13T05:02:38;16.20;99.90
9776;DHT22;4927;52.472;13.108;2023-07-13T05:03:39;16.20;99.90
9776;DHT22;4927;52.472;13.108;2023-07-13T05:04:41;16.20;99.90
9776;DHT22;4927;52.472;13.108;2023-07-13T05:05:43;16.20;99.90
9776;DHT22;4927;52.472;13.108;2023-07-13T05:06:45;16.30;99.90
9776;DHT22;4927;52.472;13.108;2023-07-13T05:07:47;16.30;99.90
9776;DHT22;4927;52.472;13.108;2023-07-13T05:08:48;16.30;99.90
9776;DHT22;4927;52.472;13.108;2023-07-13T05:09:50;16.30;99.90
9776;DHT22;4927;52.472;13.108;2023-07-13T05:10:52;16.30;99.90
9776;DHT22;4927;52.472;13.108;2023-07-13T05:11:53;16.30;99.90
9776;DHT22;4927;52.472;13.108;2023-07-13T05:12:55;16.30;99.90
9776;DHT22;4927;52.472;13.108;2023-07-13T05:13:57;16.40;99.90
9776;DHT22;4927;52.472;13.108;2023-07-13T05:14:59;16.40;99.90
9776;DHT22;4927;52.472;13.108;2023-07-13T05:16:02;16.40;99.90
9776;DHT22;4927;52.472;13.108;2023-07-13T05:17:03;16.40;99.90
9776;DHT22;4927;52.472;13.108;2023-07-13T05:18:05;16.40;99.90
9776;DHT22;4927;52.472;13.108;2023-07-13T05:19:07;16.50;99.90
9776;DHT22;4927;52.472;13.108;2023-07-13T05:20:09;16.50;99.90
9776;DHT22;4927;52.472;13.108;2023-07-13T05:21:11;16.50;99.90
9776;DHT22;4927;52.472;13.108;2023-07-13T05:22:12;16.50;99.90
9776;DHT22;4927;52.472;13.108;2023-07-13T05:23:14;16.60;99.90
9776;DHT22;4927;52.472;13.108;2023-07-13T05:24:16;16.60;99.90
9776;DHT22;4927;52.472;13.108;2023-07-13T05:25:18;16.60;99.90
9776;DHT22;4927;52.472;13.108;2023-07-13T05:26:20;16.60;99.90
9776;DHT22;4927;52.472;13.108;2023-07-13T05:27:21;16.60;99.90
9776;DHT22;4927;52.472;13.108;2023-07-13T05:28:23;16.70;99.90
9776;DHT22;4927;52.472;13.108;2023-07-13T05:29:25;16.70;99.90
9776;DHT22;4927;52.472;13.108;2023-07-13T05:30:26;16.70;99.90
9776;DHT22;4927;52.472;13.108;2023-07-13T05:31:28;16.70;99.90
9776;DHT22;4927;52.472;13.108;2023-07-13T05:32:30;16.80;99.90
9776;DHT22;4927;52.472;13.108;2023-07-13T05:33:32;16.80;99.90
9776;DHT22;4927;52.472;13.108;2023-07-13T05:34:33;16.90;99.90
9776;DHT22;4927;52.472;13.108;2023-07-13T05:35:35;16.90;99.90
9776;DHT22;4927;52.472;13.108;2023-07-13T05:36:37;16.90;99.90
9776;DHT22;4927;52.472;13.108;2023-07-13T05:37:38;17.00;99.90
9776;DHT22;4927;52.472;13.108;2023-07-13T05:38:40;17.00;99.90
9776;DHT22;4927;52.472;13.108;2023-07-13T05:39:42;17.10;99.90
9776;DHT22;4927;52.472;13.108;2023-07-13T05:40:44;17.10;99.90
9776;DHT22;4927;52.472;13.108;2023-07-13T05:41:45;17.20;99.90
9776;DHT22;4927;52.472;13.108;2023-07-13T05:42:47;17.20;99.90
9776;DHT22;4927;52.472;13.108;2023-07-13T05:43:49;17.20;99.90
9776;DHT22;4927;52.472;13.108;2023-07-13T05:44:50;17.30;99.90
9776;DHT22;4927;52.472;13.108;2023-07-13T05:45:53;17.30;99.90
9776;DHT22;4927;52.472;13.108;2023-07-13T05:46:55;17.30;99.90
9776;DHT22;4927;52.472;13.108;2023-07-13T05:47:57;17.40;99.90
9776;DHT22;4927;52.472;13.108;2023-07-13T05:48:58;17.40;99.90
9776;DHT22;4927;52.472;13.108;2023-07-13T05:50:00;17.40;99.90
9776;DHT22;4927;52.472;13.108;2023-07-13T05:51:02;17.50;99.90
9776;DHT22;4927;52.472;13.108;2023-07-13T05:52:04;17.50;99.90
9776;DHT22;4927;52.472;13.108;2023-07-13T05:53:06;17.50;99.90
9776;DHT22;4927;52.472;13.108;2023-07-13T05:54:08;17.60;99.90
9776;DHT22;4927;52.472;13.108;2023-07-13T05:55:09;17.60;99.90
9776;DHT22;4927;52.472;13.108;2023-07-13T05:56:11;17.70;99.90
9776;DHT22;4927;52.472;13.108;2023-07-13T05:57:13;17.70;99.90
9776;DHT22;4927;52.472;13.108;2023-07-13T05:58:16;17.70;99.90
9776;DHT22;4927;52.472;13.108;2023-07-13T05:59:17;17.80;99.90
9776;DHT22;4927;52.472;13.108;2023-07-13T06:00:18;17.90;99.90
9776;DHT22;4927;52.472;13.108;2023-07-13T06:01:21;18.00;99.90
9776;DHT22;4927;52.472;13.108;2023-07-13T06:02:22;18.00;99.90
9776;DHT22;4927;52.472;13.108;2023-07-13T06:03:24;18.00;99.90
9776;DHT22;4927;52.472;13.108;2023-07-13T06:04:26;18.10;99.90
9776;DHT22;4927;52.472;13.108;2023-07-13T06:05:27;18.10;99.90
9776;DHT22;4927;52.472;13.108;2023-07-13T06:06:29;18.20;99.90
9776;DHT22;4927;52.472;13.108;2023-07-13T06:07:31;18.20;99.90
9776;DHT22;4927;52.472;13.108;2023-07-13T06:08:33;18.20;99.90
9776;DHT22;4927;52.472;13.108;2023-07-13T06:09:35;18.20;99.90
9776;DHT22;4927;52.472;13.108;2023-07-13T06:10:37;18.20;99.90
9776;DHT22;4927;52.472;13.108;2023-07-13T06:11:38;18.30;99.90
9776;DHT22;4927;52.472;13.108;2023-07-13T06:12:40;18.30;99.90
9776;DHT22;4927;52.472;13.108;2023-07-13T06:13:42;18.30;99.90
9776;DHT22;4927;52.472;13.108;2023-07-13T06:14:44;18.30;99.90
9776;DHT22;4927;52.472;13.108;2023-07-13T06:15:49;18.30;99.90
9776;DHT22;4927;52.472;13.108;2023-07-13T06:16:50;18.30;99.90
9776;DHT22;4927;52.472;13.108;2023-07-13T06:17:52;18.40;99.90
9776;DHT22;4927;52.472;13.108;2023-07-13T06:18:53;18.40;99.90
9776;DHT22;4927;52.472;13.108;2023-07-13T06:19:55;18.40;99.90
9776;DHT22;4927;52.472;13.108;2023-07-13T06:20:57;18.40;99.90
9776;DHT22;4927;52.472;13.108;2023-07-13T06:21:58;18.40;99.90
9776;DHT22;4927;52.472;13.108;2023-07-13T06:23:01;18.40;99.90
9776;DHT22;4927;52.472;13.108;2023-07-13T06:24:02;18.50;99.90
9776;DHT22;4927;52.472;13.108;2023-07-13T06:25:04;18.50;99.90
9776;DHT22;4927;52.472;13.108;2023-07-13T06:26:07;18.50;99.90
9776;DHT22;4927;52.472;13.108;2023-07-13T06:27:08;18.50;99.90
9776;DHT22;4927;52.472;13.108;2023-07-13T06:28:10;18.60;99.90
9776;DHT22;4927;52.472;13.108;2023-07-13T06:29:12;18.60;99.90
9776;DHT22;4927;52.472;13.108;2023-07-13T06:30:13;18.60;99.90
9776;DHT22;4927;52.472;13.108;2023-07-13T06:31:15;18.60;99.90
9776;DHT22;4927;52.472;13.108;2023-07-13T06:32:17;18.60;99.90
9776;DHT22;4927;52.472;13.108;2023-07-13T06:33:18;18.70;99.90
9776;DHT22;4927;52.472;13.108;2023-07-13T06:34:20;18.70;99.90
9776;DHT22;4927;52.472;13.108;2023-07-13T06:35:23;18.80;99.90
9776;DHT22;4927;52.472;13.108;2023-07-13T06:36:24;18.80;99.90
9776;DHT22;4927;52.472;13.108;2023-07-13T06:37:27;18.90;99.90
9776;DHT22;4927;52.472;13.108;2023-07-13T06:38:29;18.90;99.90
9776;DHT22;4927;52.472;13.108;2023-07-13T06:39:31;18.90;99.90